Time;durP1;ratioP1;P1;durP2;ratioP2;P2;SDS_P1;SDS_P2;PMS_P1;PMS_P2;Temp;Humidity;BMP_temperature;BMP_pressure;BME280_temperature;BME280_humidity;BME280_pressure;Samples;Min_cycle;Max_cycle;Signal;HPM_P1;HPM_P2
2023/08/24 00:00:20;;;;;;;5.30;4.80;;;18.40;99.90;;;;;;5047235;28;20420;-71
2023/08/24 00:02:46;;;;;;;6.87;5.20;;;18.40;99.90;;;;;;5047602;28;20412;-70
2023/08/24 00:05:12;;;;;;;6.93;4.60;;;18.30;99.90;;;;;;5047313;28;20750;-70
2023/08/24 00:07:38;;;;;;;6.03;5.00;;;18.30;99.90;;;;;;5046803;28;20430;-70
2023/08/24 00:10:05;;;;;;;4.83;4.43;;;18.20;99.90;;;;;;5047637;28;20482;-70
2023/08/24 00:12:35;;;;;;;5.53;4.60;;;18.20;99.90;;;;;;5047313;28;20421;-70
2023/08/24 00:15:02;;;;;;;4.90;4.47;;;18.30;99.90;;;;;;5047305;28;20499;-70
2023/08/24 00:17:28;;;;;;;6.07;5.13;;;18.20;99.90;;;;;;5046775;28;20413;-70
2023/08/24 00:19:53;;;;;;;5.60;5.10;;;18.20;99.90;;;;;;5047537;28;20419;-71
2023/08/24 00:22:19;;;;;;;5.90;5.23;;;18.10;99.90;;;;;;5047786;28;20608;-71
2023/08/24 00:24:45;;;;;;;5.40;4.90;;;18.10;99.90;;;;;;5047139;28;20204;-71
2023/08/24 00:27:10;;;;;;;7.40;5.10;;;18.20;99.90;;;;;;5047113;28;20256;-71
2023/08/24 00:29:36;;;;;;;5.70;5.20;;;18.20;99.90;;;;;;5048436;28;20216;-71
2023/08/24 00:32:02;;;;;;;5.50;5.00;;;18.10;99.90;;;;;;5060038;28;20189;-71
2023/08/24 00:34:27;;;;;;;8.00;4.53;;;18.10;99.90;;;;;;5060368;28;20188;-71
2023/08/24 00:36:53;;;;;;;6.13;5.30;;;18.00;99.90;;;;;;5058934;28;20654;-71
2023/08/24 00:39:19;;;;;;;5.27;4.77;;;18.00;99.90;;;;;;5054117;28;20256;-71
2023/08/24 00:41:45;;;;;;;5.63;5.13;;;18.00;99.90;;;;;;5047130;28;20184;-72
2023/08/24 00:44:12;;;;;;;6.33;5.10;;;18.00;99.90;;;;;;5047742;28;20204;-72
2023/08/24 00:46:37;;;;;;;5.63;4.90;;;18.00;99.90;;;;;;5046541;28;20424;-72
2023/08/24 00:49:03;;;;;;;4.80;4.40;;;18.10;99.90;;;;;;5047181;28;20442;-71
2023/08/24 00:51:29;;;;;;;5.73;5.00;;;18.00;99.90;;;;;;5047325;28;20919;-71
2023/08/24 00:53:57;;;;;;;5.77;5.27;;;17.90;99.90;;;;;;5046861;28;20181;-71
2023/08/24 00:56:24;;;;;;;8.70;5.13;;;17.80;99.90;;;;;;5046905;28;20197;-71
2023/08/24 00:58:51;;;;;;;5.90;5.23;;;17.80;99.90;;;;;;5048310;28;21035;-71
2023/08/24 01:01:20;;;;;;;6.10;5.00;;;17.70;99.90;;;;;;5050963;28;20427;-71
2023/08/24 01:03:46;;;;;;;5.00;4.53;;;17.70;99.90;;;;;;5050612;28;20499;-71
2023/08/24 01:06:12;;;;;;;5.37;4.57;;;17.60;99.90;;;;;;5049387;28;21001;-72
2023/08/24 01:08:37;;;;;;;5.67;4.70;;;17.60;99.90;;;;;;5050233;28;20210;-72
2023/08/24 01:11:26;;;;;;;8.73;4.63;;;17.60;99.90;;;;;;5050350;28;20464;-72
2023/08/24 01:14:03;;;;;;;5.33;4.83;;;17.50;99.90;;;;;;5050731;28;20193;-72
2023/08/24 01:16:33;;;;;;;6.23;5.23;;;17.50;99.90;;;;;;5049563;28;20412;-72
2023/08/24 01:18:59;;;;;;;7.70;5.13;;;17.50;99.90;;;;;;5050559;28;20432;-72
2023/08/24 01:21:26;;;;;;;5.87;5.17;;;17.50;99.90;;;;;;5050341;28;20420;-72
2023/08/24 01:24:12;;;;;;;5.83;5.33;;;17.40;99.90;;;;;;5050549;28;20475;-72
2023/08/24 01:26:38;;;;;;;6.33;5.57;;;17.40;99.90;;;;;;5049665;28;20420;-72
2023/08/24 01:29:05;;;;;;;6.10;5.30;;;17.30;99.90;;;;;;5050239;28;20841;-72
2023/08/24 01:31:31;;;;;;;6.67;5.73;;;17.30;99.90;;;;;;5050278;28;20972;-72
2023/08/24 01:33:56;;;;;;;5.73;5.20;;;17.30;99.90;;;;;;5050417;28;20415;-72
2023/08/24 01:36:22;;;;;;;6.00;5.50;;;17.30;99.90;;;;;;5049031;28;20657;-71
2023/08/24 01:39:06;;;;;;;5.90;5.30;;;17.30;99.90;;;;;;5050084;28;20264;-72
2023/08/24 01:41:42;;;;;;;7.83;5.40;;;17.30;99.90;;;;;;5050340;28;20552;-72
2023/08/24 01:44:12;;;;;;;6.00;5.40;;;17.30;99.90;;;;;;5050011;28;20503;-72
2023/08/24 01:46:39;;;;;;;6.13;5.37;;;17.30;99.90;;;;;;5049220;28;20416;-72
2023/08/24 01:49:07;;;;;;;7.33;4.90;;;17.30;99.90;;;;;;5049681;28;21309;-72
2023/08/24 01:51:34;;;;;;;9.40;5.77;;;17.30;99.90;;;;;;5048812;28;20481;-72
2023/08/24 01:54:00;;;;;;;8.43;4.80;;;17.40;99.90;;;;;;5050027;28;21157;-72
2023/08/24 01:56:26;;;;;;;6.83;5.87;;;17.30;99.90;;;;;;5048960;28;20507;-72
2023/08/24 01:58:52;;;;;;;6.00;5.40;;;17.40;99.90;;;;;;5048442;28;20859;-72
2023/08/24 02:01:18;;;;;;;8.17;6.07;;;17.40;99.90;;;;;;5048542;28;20194;-72
2023/08/24 02:03:43;;;;;;;6.93;5.73;;;17.50;99.90;;;;;;5049814;28;20417;-72
2023/08/24 02:06:09;;;;;;;6.63;4.90;;;17.60;99.90;;;;;;5048952;28;20524;-71
2023/08/24 02:08:35;;;;;;;7.60;5.70;;;17.60;99.90;;;;;;5049027;28;20209;-72
2023/08/24 02:11:00;;;;;;;6.10;5.43;;;17.60;99.90;;;;;;5049480;28;20205;-72
2023/08/24 02:13:26;;;;;;;6.23;5.73;;;17.50;99.90;;;;;;5048008;28;20820;-71
2023/08/24 02:16:05;;;;;;;6.43;5.87;;;17.50;99.90;;;;;;5047958;28;20209;-72
2023/08/24 02:18:31;;;;;;;7.93;7.17;;;17.40;99.90;;;;;;5048726;28;20197;-72
2023/08/24 02:20:56;;;;;;;7.37;6.67;;;17.50;99.90;;;;;;5049667;28;20486;-72
2023/08/24 02:23:22;;;;;;;12.40;7.13;;;17.50;99.90;;;;;;5049278;28;20200;-72
2023/08/24 02:25:48;;;;;;;7.80;6.60;;;17.50;99.90;;;;;;5049335;28;20670;-72
2023/08/24 02:28:14;;;;;;;9.63;7.20;;;17.40;99.90;;;;;;5048235;28;20217;-71
2023/08/24 02:30:39;;;;;;;7.97;6.17;;;17.30;99.90;;;;;;5049124;28;20824;-72
2023/08/24 02:33:05;;;;;;;7.83;6.97;;;17.30;99.90;;;;;;5049230;28;20181;-71
2023/08/24 02:35:31;;;;;;;7.70;6.77;;;17.20;99.90;;;;;;5048750;28;20186;-72
2023/08/24 02:37:57;;;;;;;7.33;6.33;;;17.10;99.90;;;;;;5047574;28;20428;-71
2023/08/24 02:40:23;;;;;;;7.10;5.93;;;17.10;99.90;;;;;;5048894;28;20188;-71
2023/08/24 02:42:49;;;;;;;8.90;6.40;;;17.00;99.90;;;;;;5049342;28;20416;-71
2023/08/24 02:45:14;;;;;;;7.60;6.80;;;17.00;99.90;;;;;;5048683;28;20495;-71
2023/08/24 02:47:40;;;;;;;6.60;6.00;;;17.00;99.90;;;;;;5048210;28;20204;-71
2023/08/24 02:50:06;;;;;;;7.23;6.40;;;17.00;99.90;;;;;;5048905;28;20205;-72
2023/08/24 02:52:32;;;;;;;8.83;6.70;;;17.00;99.90;;;;;;5048730;28;20174;-71
2023/08/24 02:54:58;;;;;;;7.00;6.10;;;17.00;99.90;;;;;;5048790;28;20413;-72
2023/08/24 02:57:24;;;;;;;10.30;7.23;;;17.00;99.90;;;;;;5048026;28;20908;-71
2023/08/24 02:59:50;;;;;;;7.10;6.03;;;17.00;99.90;;;;;;5047815;28;20528;-71
2023/08/24 03:02:15;;;;;;;7.30;6.00;;;17.00;99.90;;;;;;5048772;28;20413;-71
2023/08/24 03:04:41;;;;;;;6.60;6.00;;;17.00;99.90;;;;;;5048296;28;20186;-71
2023/08/24 03:07:08;;;;;;;6.90;6.20;;;17.00;99.90;;;;;;5046857;28;20331;-72
2023/08/24 03:09:36;;;;;;;6.53;5.90;;;17.00;99.90;;;;;;5048426;28;20220;-71
2023/08/24 03:12:02;;;;;;;6.37;5.60;;;17.00;99.90;;;;;;5048945;28;20424;-71
2023/08/24 03:14:28;;;;;;;7.70;5.97;;;17.00;99.90;;;;;;5048597;28;20409;-71
2023/08/24 03:16:54;;;;;;;7.00;6.17;;;17.00;99.90;;;;;;5047791;28;20416;-71
2023/08/24 03:19:20;;;;;;;5.63;5.13;;;17.10;99.90;;;;;;5048647;28;20431;-71
2023/08/24 03:21:45;;;;;;;6.77;6.03;;;17.10;99.90;;;;;;5046660;28;20635;-72
2023/08/24 03:24:11;;;;;;;7.20;6.60;;;17.10;99.90;;;;;;5048860;28;20178;-72
2023/08/24 03:26:37;;;;;;;7.17;6.47;;;17.10;99.90;;;;;;5046519;28;20704;-71
2023/08/24 03:29:03;;;;;;;11.70;6.60;;;17.10;99.90;;;;;;5047048;28;20297;-71
2023/08/24 03:31:28;;;;;;;10.63;6.40;;;17.10;99.90;;;;;;5047198;28;20308;-72
2023/08/24 03:33:54;;;;;;;6.07;5.47;;;17.10;99.90;;;;;;5048493;28;20690;-72
2023/08/24 03:36:20;;;;;;;7.40;5.50;;;17.10;99.90;;;;;;5048230;28;20440;-72
2023/08/24 03:38:46;;;;;;;6.20;5.60;;;17.10;99.90;;;;;;5048156;28;20284;-72
2023/08/24 03:41:12;;;;;;;6.73;6.10;;;17.10;99.90;;;;;;5048512;28;20840;-71
2023/08/24 03:43:37;;;;;;;6.53;5.80;;;17.10;99.90;;;;;;5048700;28;20247;-72
2023/08/24 03:46:05;;;;;;;6.90;6.20;;;17.10;99.90;;;;;;5048181;28;20178;-72
2023/08/24 03:48:31;;;;;;;6.33;5.83;;;17.10;99.90;;;;;;5048302;28;20327;-72
2023/08/24 03:50:58;;;;;;;7.40;6.50;;;17.10;99.90;;;;;;5048909;28;20459;-72
2023/08/24 03:53:24;;;;;;;7.50;6.20;;;17.10;99.90;;;;;;5061530;28;20456;-72
2023/08/24 03:55:51;;;;;;;7.43;6.73;;;17.00;99.90;;;;;;5058344;28;20474;-72
2023/08/24 03:58:17;;;;;;;8.03;7.17;;;17.00;99.90;;;;;;5057757;28;20964;-72
2023/08/24 04:00:46;;;;;;;7.27;6.47;;;17.10;99.90;;;;;;5051453;28;20408;-72
2023/08/24 04:03:13;;;;;;;7.73;6.10;;;17.10;99.90;;;;;;5048307;28;20416;-72
2023/08/24 04:05:39;;;;;;;6.80;6.30;;;17.20;99.90;;;;;;5047919;28;20463;-72
2023/08/24 04:08:04;;;;;;;6.30;5.70;;;17.20;99.90;;;;;;5047197;28;20476;-71
2023/08/24 04:10:30;;;;;;;6.53;5.93;;;17.20;99.90;;;;;;5047664;28;20209;-72
2023/08/24 04:12:56;;;;;;;7.07;6.43;;;17.30;99.90;;;;;;5046541;28;20181;-72
2023/08/24 04:15:22;;;;;;;7.10;6.50;;;17.30;99.90;;;;;;5047245;28;20951;-72
2023/08/24 04:17:48;;;;;;;8.07;6.37;;;17.30;99.90;;;;;;5046934;28;20511;-71
2023/08/24 04:20:14;;;;;;;7.80;6.77;;;17.40;99.90;;;;;;5047346;28;20173;-72
2023/08/24 04:22:40;;;;;;;8.13;5.97;;;17.40;99.90;;;;;;5047705;28;20956;-72
2023/08/24 04:25:06;;;;;;;9.90;5.80;;;17.50;99.90;;;;;;5048085;28;20716;-72
2023/08/24 04:27:32;;;;;;;7.43;5.17;;;17.50;99.90;;;;;;5046413;28;20315;-72
2023/08/24 04:29:58;;;;;;;5.97;5.37;;;17.50;99.90;;;;;;5047324;28;20829;-71
2023/08/24 04:32:24;;;;;;;7.30;6.23;;;17.60;99.90;;;;;;5048109;28;20498;-72
2023/08/24 04:34:50;;;;;;;6.27;5.27;;;17.60;99.90;;;;;;5051191;28;20404;-71
2023/08/24 04:37:15;;;;;;;8.60;5.47;;;17.60;99.90;;;;;;5050622;28;20292;-71
2023/08/24 04:39:41;;;;;;;9.20;6.37;;;17.60;99.90;;;;;;5051451;28;20193;-71
2023/08/24 04:42:07;;;;;;;8.60;6.60;;;17.60;99.90;;;;;;5050118;28;20253;-71
2023/08/24 04:44:33;;;;;;;6.90;6.20;;;17.60;99.90;;;;;;5051002;28;20177;-71
2023/08/24 04:46:58;;;;;;;11.00;6.53;;;17.50;99.90;;;;;;5050177;28;20547;-71
2023/08/24 04:49:24;;;;;;;7.30;5.97;;;17.60;99.90;;;;;;5051216;28;20420;-71
2023/08/24 04:51:50;;;;;;;6.30;5.77;;;17.60;99.90;;;;;;5051104;28;20393;-71
2023/08/24 04:54:16;;;;;;;9.47;5.90;;;17.60;99.90;;;;;;5051355;28;20182;-71
2023/08/24 04:56:41;;;;;;;6.40;5.80;;;17.60;99.90;;;;;;5049838;28;20618;-71
2023/08/24 04:59:07;;;;;;;9.23;6.20;;;17.60;99.90;;;;;;5046125;28;20206;-70
2023/08/24 05:01:34;;;;;;;7.37;6.43;;;17.60;99.90;;;;;;5050366;28;20664;-71
2023/08/24 05:04:00;;;;;;;7.77;6.10;;;17.60;99.90;;;;;;5050642;28;20423;-70
2023/08/24 05:06:26;;;;;;;8.63;6.30;;;17.50;99.90;;;;;;5049531;28;20408;-71
2023/08/24 05:08:52;;;;;;;7.43;6.10;;;17.50;99.90;;;;;;5050568;28;20443;-70
2023/08/24 05:11:20;;;;;;;7.70;6.00;;;17.60;99.90;;;;;;5050645;28;20221;-70
2023/08/24 05:13:46;;;;;;;6.20;5.60;;;17.60;99.90;;;;;;5050428;28;20416;-71
2023/08/24 05:16:12;;;;;;;7.20;6.07;;;17.60;99.90;;;;;;5050429;28;20412;-70
2023/08/24 05:18:38;;;;;;;6.93;6.23;;;17.60;99.90;;;;;;5049414;28;20531;-71
2023/08/24 05:21:05;;;;;;;6.90;6.20;;;17.60;99.90;;;;;;5050791;28;20495;-70
2023/08/24 05:23:32;;;;;;;6.20;5.60;;;17.60;99.90;;;;;;5046475;28;20453;-71
2023/08/24 05:25:58;;;;;;;6.63;6.00;;;17.60;99.90;;;;;;5033206;28;20486;-70
2023/08/24 05:28:29;;;;;;;8.77;6.60;;;17.60;99.90;;;;;;5039667;28;20455;-70
2023/08/24 05:30:55;;;;;;;8.97;6.53;;;17.50;99.90;;;;;;5049565;28;20984;-70
2023/08/24 05:33:22;;;;;;;7.53;6.70;;;17.60;99.90;;;;;;5050742;28;20423;-70
2023/08/24 05:35:49;;;;;;;6.87;6.13;;;17.60;99.90;;;;;;5049676;28;20920;-70
2023/08/24 05:38:15;;;;;;;6.10;5.47;;;17.70;99.90;;;;;;5049893;28;20440;-70
2023/08/24 05:40:42;;;;;;;6.90;6.20;;;17.70;99.90;;;;;;5050512;28;20956;-70
2023/08/24 05:43:11;;;;;;;6.93;6.23;;;17.70;99.90;;;;;;5042918;28;20439;-71
2023/08/24 05:45:39;;;;;;;7.47;6.50;;;17.80;99.90;;;;;;5048621;28;20501;-70
2023/08/24 05:48:05;;;;;;;7.33;6.50;;;17.80;99.90;;;;;;5048966;28;20637;-70
2023/08/24 05:50:31;;;;;;;7.77;6.63;;;17.90;99.90;;;;;;5049369;28;20506;-70
2023/08/24 05:52:57;;;;;;;8.63;6.70;;;18.00;99.90;;;;;;5045711;28;20437;-70
2023/08/24 05:55:22;;;;;;;7.93;7.10;;;17.90;99.90;;;;;;5049353;28;20182;-70
2023/08/24 05:57:48;;;;;;;9.13;6.80;;;17.90;99.90;;;;;;5048926;28;20198;-70
2023/08/24 06:00:14;;;;;;;7.27;6.30;;;17.90;99.90;;;;;;5049026;28;20182;-70
2023/08/24 06:02:40;;;;;;;10.00;7.43;;;18.00;99.90;;;;;;5049889;28;20189;-70
2023/08/24 06:05:07;;;;;;;8.83;6.70;;;18.10;99.90;;;;;;5044619;28;20977;-70
2023/08/24 06:07:33;;;;;;;8.53;7.03;;;18.20;99.90;;;;;;5047306;28;20437;-70
2023/08/24 06:09:59;;;;;;;7.80;7.00;;;18.30;99.90;;;;;;5041282;28;20475;-70
2023/08/24 06:12:25;;;;;;;8.70;7.00;;;18.40;99.90;;;;;;5040798;28;20215;-70
2023/08/24 06:14:51;;;;;;;8.37;6.40;;;18.40;99.90;;;;;;5049634;28;20494;-70
2023/08/24 06:17:16;;;;;;;9.07;6.47;;;18.40;99.90;;;;;;5048710;28;20631;-70
2023/08/24 06:19:42;;;;;;;7.60;6.77;;;18.40;99.90;;;;;;5049826;28;20201;-71
2023/08/24 06:22:08;;;;;;;10.10;6.20;;;18.40;99.90;;;;;;5053663;28;20247;-70
2023/08/24 06:24:35;;;;;;;9.80;6.53;;;18.50;99.90;;;;;;5048722;28;20499;-70
2023/08/24 06:27:01;;;;;;;7.67;6.87;;;18.50;99.90;;;;;;5047372;28;20528;-71
2023/08/24 06:29:30;;;;;;;13.90;5.90;;;18.50;99.90;;;;;;5045239;28;20503;-71
2023/08/24 06:31:56;;;;;;;10.57;7.00;;;18.60;99.90;;;;;;5037186;28;20194;-71
2023/08/24 06:34:22;;;;;;;7.00;6.03;;;18.60;99.90;;;;;;5038966;28;20404;-71
2023/08/24 06:36:50;;;;;;;8.03;5.47;;;18.60;99.90;;;;;;5046736;28;20182;-71
2023/08/24 06:39:16;;;;;;;6.33;5.70;;;18.60;99.90;;;;;;5048919;28;20871;-71
2023/08/24 06:41:41;;;;;;;6.03;5.53;;;18.70;99.90;;;;;;5049051;28;20503;-71
2023/08/24 06:44:07;;;;;;;7.20;5.47;;;18.70;99.90;;;;;;5049034;28;20181;-71
2023/08/24 06:46:33;;;;;;;8.00;6.20;;;18.80;99.90;;;;;;5048586;28;20235;-71
2023/08/24 06:48:58;;;;;;;7.13;6.43;;;18.90;99.90;;;;;;5033969;28;20213;-71
2023/08/24 06:51:25;;;;;;;6.80;5.80;;;18.90;99.90;;;;;;5029294;28;20205;-71
2023/08/24 06:53:51;;;;;;;9.73;6.80;;;19.00;99.90;;;;;;5027939;28;20270;-71
2023/08/24 06:56:17;;;;;;;7.20;5.30;;;19.10;99.90;;;;;;5027742;28;20484;-72
2023/08/24 06:58:43;;;;;;;6.00;5.30;;;19.20;99.90;;;;;;5028663;28;20197;-71
2023/08/24 07:01:09;;;;;;;7.97;5.63;;;19.40;99.90;;;;;;5028521;28;20971;-71
2023/08/24 07:03:35;;;;;;;5.90;5.40;;;19.70;99.90;;;;;;5031249;28;20421;-71
2023/08/24 07:06:00;;;;;;;8.47;5.77;;;19.90;99.90;;;;;;5029156;28;20233;-71
2023/08/24 07:08:26;;;;;;;7.53;6.07;;;20.20;99.90;;;;;;5041069;28;20210;-71
2023/08/24 07:10:51;;;;;;;8.03;6.27;;;20.40;99.90;;;;;;5050304;28;20213;-71
2023/08/24 07:13:17;;;;;;;6.93;5.90;;;20.60;99.90;;;;;;5065330;28;20248;-71
2023/08/24 07:15:45;;;;;;;6.67;6.00;;;20.80;99.90;;;;;;5040044;28;20185;-71
2023/08/24 07:18:11;;;;;;;8.23;6.03;;;20.90;99.90;;;;;;5036562;28;20205;-72
2023/08/24 07:20:37;;;;;;;7.17;5.50;;;21.10;99.90;;;;;;5031388;28;20417;-72
2023/08/24 07:23:03;;;;;;;8.80;6.27;;;21.20;99.90;;;;;;5029279;28;20413;-72
2023/08/24 07:25:29;;;;;;;6.20;5.60;;;21.40;99.90;;;;;;5028401;28;20410;-71
2023/08/24 07:27:58;;;;;;;8.37;4.90;;;21.50;99.90;;;;;;5031049;28;20817;-71
2023/08/24 07:30:26;;;;;;;5.00;4.30;;;21.60;99.90;;;;;;5047173;28;20202;-71
2023/08/24 07:32:52;;;;;;;5.07;4.57;;;21.80;99.90;;;;;;5047867;28;21059;-72
2023/08/24 07:35:18;;;;;;;4.30;3.90;;;21.90;99.90;;;;;;5047737;28;20443;-71
2023/08/24 07:37:43;;;;;;;5.40;4.30;;;22.10;99.90;;;;;;5047280;28;20505;-72
2023/08/24 07:40:10;;;;;;;4.53;4.13;;;22.20;99.90;;;;;;5048027;28;20181;-71
2023/08/24 07:42:46;;;;;;;5.10;4.60;;;22.30;99.90;;;;;;5048091;28;20220;-72
2023/08/24 07:45:12;;;;;;;6.70;4.73;;;22.30;99.90;;;;;;5047629;28;20473;-71
2023/08/24 07:47:39;;;;;;;4.67;3.83;;;22.40;99.90;;;;;;5045551;28;20456;-71
2023/08/24 07:50:07;;;;;;;5.00;4.30;;;22.50;99.90;;;;;;5048041;28;20452;-71
2023/08/24 07:52:32;;;;;;;5.10;4.33;;;22.50;99.90;;;;;;5046711;28;20412;-72
2023/08/24 07:55:00;;;;;;;7.77;4.47;;;22.60;99.90;;;;;;5047464;28;20756;-71
2023/08/24 07:57:26;;;;;;;4.90;4.40;;;22.60;99.90;;;;;;5047280;28;20690;-71
2023/08/24 07:59:52;;;;;;;5.33;4.30;;;22.70;99.90;;;;;;5047570;28;20467;-71
2023/08/24 08:02:18;;;;;;;7.27;4.60;;;22.80;99.90;;;;;;5047800;28;20842;-71
2023/08/24 08:04:43;;;;;;;5.70;4.53;;;22.80;99.90;;;;;;5047239;28;20499;-72
2023/08/24 08:07:09;;;;;;;7.40;5.13;;;22.90;99.90;;;;;;5046966;28;20173;-71
2023/08/24 08:09:36;;;;;;;7.43;4.40;;;22.90;99.90;;;;;;5047406;28;20186;-72
2023/08/24 08:12:03;;;;;;;5.13;4.33;;;22.90;99.90;;;;;;5047518;28;20685;-71
2023/08/24 08:14:29;;;;;;;5.13;4.37;;;22.90;99.90;;;;;;5047503;28;20937;-72
2023/08/24 08:16:56;;;;;;;6.60;4.10;;;22.90;99.90;;;;;;5046577;28;20462;-71
2023/08/24 08:19:21;;;;;;;5.47;4.60;;;22.90;99.90;;;;;;5047519;28;21577;-71
2023/08/24 08:21:47;;;;;;;5.40;4.30;;;23.00;99.90;;;;;;5047509;28;20416;-71
2023/08/24 08:24:13;;;;;;;5.67;5.07;;;23.00;99.90;;;;;;5047232;28;20564;-71
2023/08/24 08:26:39;;;;;;;6.00;4.23;;;23.00;99.90;;;;;;5046551;28;20764;-71
2023/08/24 08:29:05;;;;;;;5.40;3.43;;;23.10;99.90;;;;;;5047055;28;20225;-71
2023/08/24 08:31:31;;;;;;;5.30;4.40;;;23.10;99.90;;;;;;5047466;28;20650;-71
2023/08/24 08:33:56;;;;;;;5.70;3.70;;;23.20;99.90;;;;;;5047321;28;20492;-71
2023/08/24 08:36:22;;;;;;;5.30;4.10;;;23.20;99.90;;;;;;5046591;28;20178;-71
2023/08/24 08:38:49;;;;;;;8.23;4.73;;;23.20;99.90;;;;;;5046993;28;20621;-71
2023/08/24 08:41:17;;;;;;;5.37;4.33;;;23.30;99.90;;;;;;5047170;28;20227;-72
2023/08/24 08:43:43;;;;;;;5.07;4.07;;;23.30;99.90;;;;;;5047432;28;20413;-71
2023/08/24 08:46:09;;;;;;;5.87;4.77;;;23.40;99.90;;;;;;5046918;28;20459;-71
2023/08/24 08:48:36;;;;;;;7.07;4.23;;;23.40;99.90;;;;;;5045348;28;20212;-71
2023/08/24 08:51:02;;;;;;;6.30;4.57;;;23.50;99.90;;;;;;5047241;28;20197;-71
2023/08/24 08:53:28;;;;;;;6.73;4.70;;;23.50;99.90;;;;;;5045806;28;20515;-71
2023/08/24 08:55:57;;;;;;;4.40;4.00;;;23.60;99.90;;;;;;5062291;28;20534;-71
2023/08/24 08:58:24;;;;;;;7.00;5.10;;;23.70;99.90;;;;;;5046234;28;20186;-71
2023/08/24 09:00:52;;;;;;;7.63;4.77;;;23.70;99.90;;;;;;5045870;28;20416;-71
2023/08/24 09:03:21;;;;;;;7.93;4.00;;;23.80;99.90;;;;;;5046898;28;20829;-72
2023/08/24 09:05:49;;;;;;;5.40;4.10;;;23.90;99.90;;;;;;5046875;28;20431;-71
2023/08/24 09:08:18;;;;;;;4.90;4.10;;;24.00;99.90;;;;;;5045831;28;20435;-71
2023/08/24 09:10:44;;;;;;;4.83;3.67;;;24.10;99.90;;;;;;5045489;28;20459;-71
2023/08/24 09:13:10;;;;;;;4.80;3.90;;;24.10;99.90;;;;;;5046990;28;20771;-71
2023/08/24 09:15:36;;;;;;;8.57;4.20;;;24.20;99.90;;;;;;5028831;28;20415;-71
2023/08/24 09:18:02;;;;;;;4.73;4.30;;;24.40;99.90;;;;;;5046536;28;20657;-71
2023/08/24 09:20:29;;;;;;;5.80;4.47;;;24.40;99.90;;;;;;5047782;28;20182;-71
2023/08/24 09:22:57;;;;;;;11.07;4.20;;;24.50;99.90;;;;;;5050565;28;20427;-72
2023/08/24 09:25:23;;;;;;;6.83;4.73;;;24.60;99.90;;;;;;5050076;28;20773;-71
2023/08/24 09:28:04;;;;;;;5.37;4.30;;;24.70;99.90;;;;;;5049722;28;20435;-71
2023/08/24 09:30:35;;;;;;;6.77;4.50;;;24.80;99.90;;;;;;5050411;28;20460;-71
2023/08/24 09:33:02;;;;;;;5.23;4.40;;;24.90;99.90;;;;;;5050286;28;20412;-71
2023/08/24 09:35:28;;;;;;;5.07;4.63;;;25.00;99.90;;;;;;5049988;28;20405;-72
2023/08/24 09:37:54;;;;;;;5.23;4.27;;;25.10;99.90;;;;;;5049666;28;21290;-72
2023/08/24 09:40:28;;;;;;;8.33;4.60;;;25.30;99.90;;;;;;5050044;28;21054;-72
2023/08/24 09:42:53;;;;;;;4.50;4.10;;;25.40;99.90;;;;;;5050312;28;20263;-71
2023/08/24 09:45:19;;;;;;;4.47;4.07;;;25.50;99.90;;;;;;5049835;28;20444;-71
2023/08/24 09:47:47;;;;;;;5.43;4.43;;;25.60;99.90;;;;;;5048481;28;20194;-72
2023/08/24 09:50:12;;;;;;;5.30;4.80;;;25.70;99.90;;;;;;5049965;28;20202;-71
2023/08/24 09:52:42;;;;;;;8.03;5.27;;;25.80;99.90;;;;;;5048578;28;20416;-71
2023/08/24 09:55:09;;;;;;;5.10;4.60;;;25.80;99.90;;;;;;5049624;28;20177;-71
2023/08/24 09:57:37;;;;;;;5.73;4.80;;;25.90;99.90;;;;;;5049272;28;20984;-71
2023/08/24 10:00:14;;;;;;;5.80;5.30;;;25.90;99.90;;;;;;5049209;28;20416;-71
2023/08/24 10:02:50;;;;;;;5.63;4.80;;;26.00;99.90;;;;;;5049979;28;20441;-71
2023/08/24 10:05:23;;;;;;;6.70;5.47;;;26.00;99.90;;;;;;5065220;28;20400;-71
2023/08/24 10:07:54;;;;;;;7.30;4.60;;;26.10;99.90;;;;;;5049303;28;20433;-71
2023/08/24 10:10:21;;;;;;;6.17;3.97;;;26.10;99.90;;;;;;5050345;28;21012;-72
2023/08/24 10:12:50;;;;;;;4.30;4.00;;;26.20;99.90;;;;;;5049458;28;20763;-71
2023/08/24 10:15:18;;;;;;;4.00;3.60;;;26.20;99.90;;;;;;5065124;28;20462;-71
2023/08/24 10:17:45;;;;;;;4.37;3.97;;;26.30;99.90;;;;;;5048972;28;20456;-71
2023/08/24 10:20:11;;;;;;;6.80;3.97;;;26.40;99.90;;;;;;5065513;28;20413;-71
2023/08/24 10:22:41;;;;;;;5.40;3.83;;;26.30;99.90;;;;;;5049917;28;20408;-72
2023/08/24 10:25:12;;;;;;;4.50;4.10;;;26.40;99.90;;;;;;5050069;28;20408;-71
2023/08/24 10:27:43;;;;;;;6.27;4.17;;;26.40;99.90;;;;;;5048848;28;20427;-72
2023/08/24 10:30:14;;;;;;;5.63;3.67;;;26.40;99.90;;;;;;5049684;28;20467;-72
2023/08/24 10:32:45;;;;;;;3.97;3.50;;;26.40;99.90;;;;;;5049771;28;20456;-71
2023/08/24 10:35:11;;;;;;;5.07;4.03;;;26.40;99.90;;;;;;5058124;28;20393;-71
2023/08/24 10:37:37;;;;;;;4.13;3.73;;;26.50;99.90;;;;;;5062189;28;20474;-71
2023/08/24 10:40:06;;;;;;;6.33;3.57;;;26.50;99.90;;;;;;5060775;28;20476;-72
2023/08/24 10:42:45;;;;;;;4.40;3.67;;;26.50;99.90;;;;;;5056548;28;20182;-71
2023/08/24 10:45:13;;;;;;;4.20;3.50;;;26.50;99.90;;;;;;5049679;28;20773;-72
2023/08/24 10:47:46;;;;;;;4.13;3.80;;;26.50;99.90;;;;;;5048807;28;20790;-72
2023/08/24 10:50:13;;;;;;;3.30;3.00;;;26.50;99.90;;;;;;5047603;28;20490;-72
2023/08/24 10:52:43;;;;;;;3.83;3.53;;;26.60;99.90;;;;;;5047712;28;20420;-72
2023/08/24 10:55:23;;;;;;;4.27;3.27;;;26.60;99.90;;;;;;5047425;28;20487;-71
2023/08/24 10:58:00;;;;;;;4.00;3.40;;;26.50;99.90;;;;;;5048463;28;20432;-72
2023/08/24 11:00:30;;;;;;;3.93;3.53;;;26.60;99.90;;;;;;5048227;28;20416;-71
2023/08/24 11:02:57;;;;;;;3.70;3.40;;;26.60;99.90;;;;;;5048697;28;20420;-71
2023/08/24 11:05:35;;;;;;;3.40;3.10;;;26.70;99.90;;;;;;5047187;28;20404;-71
2023/08/24 11:08:07;;;;;;;3.67;3.37;;;26.70;99.90;;;;;;5047816;28;20436;-71
2023/08/24 11:10:41;;;;;;;3.43;3.13;;;26.70;99.90;;;;;;5048508;28;20924;-71
2023/08/24 11:13:15;;;;;;;3.60;3.30;;;26.70;99.90;;;;;;5047226;28;20924;-71
2023/08/24 11:15:43;;;;;;;5.77;3.77;;;26.80;99.90;;;;;;5046759;28;20416;-71
2023/08/24 11:18:28;;;;;;;4.00;3.60;;;26.80;99.90;;;;;;5047976;28;20425;-71
2023/08/24 11:20:56;;;;;;;3.87;3.53;;;26.90;99.90;;;;;;5048388;28;20478;-71
2023/08/24 11:23:24;;;;;;;3.63;3.07;;;26.80;99.90;;;;;;5048038;28;20416;-71
2023/08/24 11:25:57;;;;;;;4.50;3.60;;;26.80;99.90;;;;;;5046532;28;20412;-71
2023/08/24 11:28:28;;;;;;;7.23;4.00;;;26.80;99.90;;;;;;5047320;28;20456;-71
2023/08/24 11:30:55;;;;;;;4.43;3.83;;;26.80;99.90;;;;;;5046533;28;20464;-71
2023/08/24 11:33:29;;;;;;;5.47;3.60;;;26.80;99.90;;;;;;5048148;28;20897;-71
2023/08/24 11:35:55;;;;;;;4.50;3.33;;;26.70;99.90;;;;;;5047705;28;20412;-71
2023/08/24 11:38:21;;;;;;;4.03;3.33;;;26.70;99.90;;;;;;5041254;28;21033;-71
2023/08/24 11:40:46;;;;;;;6.30;4.17;;;26.70;99.90;;;;;;5046825;28;20416;-71
2023/08/24 11:43:12;;;;;;;3.80;3.50;;;26.70;99.90;;;;;;5030367;28;20187;-71
2023/08/24 11:45:40;;;;;;;5.20;4.00;;;26.60;99.90;;;;;;5040381;28;20183;-71
2023/08/24 11:48:07;;;;;;;4.43;3.93;;;26.60;99.90;;;;;;5039651;28;20258;-71
2023/08/24 11:50:34;;;;;;;4.60;4.20;;;26.60;99.90;;;;;;5033874;28;20488;-71
2023/08/24 11:53:01;;;;;;;5.73;3.13;;;26.50;99.90;;;;;;5047553;28;20460;-71
2023/08/24 11:55:26;;;;;;;3.70;3.40;;;26.50;99.90;;;;;;5046861;28;20499;-71
2023/08/24 11:57:53;;;;;;;7.70;3.37;;;26.40;99.90;;;;;;5046943;28;20511;-71
2023/08/24 12:00:21;;;;;;;5.37;3.10;;;26.40;99.90;;;;;;5047298;28;20220;-71
2023/08/24 12:02:48;;;;;;;3.37;3.00;;;26.40;99.90;;;;;;5050690;28;20443;-71
2023/08/24 12:05:24;;;;;;;6.30;5.00;;;26.30;99.90;;;;;;5045915;28;20427;-71
2023/08/24 12:07:52;;;;;;;4.60;3.50;;;26.30;99.90;;;;;;5046840;28;20443;-71
2023/08/24 12:10:18;;;;;;;4.30;3.30;;;26.30;99.90;;;;;;5039884;28;20454;-71
2023/08/24 12:12:44;;;;;;;4.00;3.60;;;26.30;99.90;;;;;;5047426;28;20452;-71
2023/08/24 12:15:16;;;;;;;5.40;3.90;;;26.30;99.90;;;;;;5047084;28;20272;-71
2023/08/24 12:17:43;;;;;;;5.10;3.87;;;26.40;99.90;;;;;;5043120;28;20247;-71
2023/08/24 12:20:21;;;;;;;6.60;4.33;;;26.40;99.90;;;;;;5049330;28;20851;-71
2023/08/24 12:22:54;;;;;;;4.83;4.00;;;26.40;99.90;;;;;;5046958;28;20450;-71
2023/08/24 12:25:23;;;;;;;5.53;4.03;;;26.40;99.90;;;;;;5046933;28;20424;-71
2023/08/24 12:27:52;;;;;;;10.40;5.40;;;26.40;99.90;;;;;;5046417;28;20475;-71
2023/08/24 12:30:19;;;;;;;4.20;3.90;;;26.40;99.90;;;;;;5046899;28;20953;-71
2023/08/24 12:32:47;;;;;;;7.90;3.90;;;26.40;99.90;;;;;;5046979;28;20528;-71
2023/08/24 12:35:17;;;;;;;3.97;3.67;;;26.40;99.90;;;;;;5045127;28;20477;-71
2023/08/24 12:37:42;;;;;;;5.03;4.07;;;26.40;99.90;;;;;;5046477;28;20432;-71
2023/08/24 12:40:08;;;;;;;4.67;3.80;;;26.40;99.90;;;;;;5046984;28;20435;-71
2023/08/24 12:42:34;;;;;;;5.50;3.80;;;26.40;99.90;;;;;;5047071;28;20643;-71
2023/08/24 12:45:00;;;;;;;4.83;3.70;;;26.40;99.90;;;;;;5045514;28;20428;-71